Time;durP1;ratioP1;P1;durP2;ratioP2;P2;SDS_P1;SDS_P2;PMS_P1;PMS_P2;Temp;Humidity;BMP_temperature;BMP_pressure;BME280_temperature;BME280_humidity;BME280_pressure;Samples;Min_cycle;Max_cycle;Signal;HPM_P1;HPM_P2
2023/09/21 00:02:00;;;;;;;13.77;2.80;;;;;;;19.40;74.00;96773.63;5064308;28;20063;-83
2023/09/21 00:04:44;;;;;;;12.35;2.72;;;;;;;19.46;73.90;96782.25;5061503;28;20048;-84
2023/09/21 00:07:28;;;;;;;16.60;3.50;;;;;;;19.21;74.41;96771.19;5063289;28;20040;-84
2023/09/21 00:10:12;;;;;;;13.52;3.22;;;;;;;19.45;74.41;96775.34;5059813;28;20422;-83
2023/09/21 00:12:56;;;;;;;10.38;3.10;;;;;;;19.35;74.36;96775.63;5063659;28;20064;-84
2023/09/21 00:15:42;;;;;;;10.57;2.53;;;;;;;19.33;74.64;96773.28;5064769;28;20083;-85
2023/09/21 00:18:27;;;;;;;12.90;2.92;;;;;;;19.47;74.29;96770.53;5057824;28;20124;-83
2023/09/21 00:21:12;;;;;;;16.95;3.28;;;;;;;19.60;73.79;96770.69;5063861;28;20044;-83
2023/09/21 00:24:00;;;;;;;12.68;3.08;;;;;;;19.38;74.32;96775.00;5062925;28;20044;-85
2023/09/21 00:26:47;;;;;;;10.07;3.28;;;;;;;19.52;73.66;96786.34;5060275;28;20059;-85
2023/09/21 00:29:31;;;;;;;10.85;2.95;;;;;;;19.34;73.74;96779.38;5057012;28;20086;-86
2023/09/21 00:32:15;;;;;;;21.45;4.07;;;;;;;19.24;74.42;96775.13;5062326;28;20031;-84
2023/09/21 00:34:59;;;;;;;17.58;3.42;;;;;;;19.27;74.22;96775.31;5059212;28;20140;-83
2023/09/21 00:37:43;;;;;;;13.15;3.28;;;;;;;19.06;74.74;96769.72;5064989;28;20191;-83
2023/09/21 00:40:27;;;;;;;15.23;2.75;;;;;;;19.19;74.35;96768.06;5060797;28;20041;-84
2023/09/21 00:43:23;;;;;;;20.73;3.42;;;;;;;19.21;73.79;96759.78;5058105;28;20117;-84
2023/09/21 00:46:07;;;;;;;11.80;2.33;;;;;;;19.23;73.73;96758.38;5061054;28;20106;-84
2023/09/21 00:48:52;;;;;;;8.98;2.30;;;;;;;19.33;73.65;96756.53;5058566;28;20043;-84
2023/09/21 00:51:37;;;;;;;20.20;3.58;;;;;;;19.22;73.91;96762.13;5061376;28;20091;-83
2023/09/21 00:54:24;;;;;;;17.55;3.28;;;;;;;19.22;74.00;96766.69;5058198;28;20167;-82
2023/09/21 00:57:11;;;;;;;18.63;3.38;;;;;;;19.09;74.00;96760.38;5063327;28;20391;-83
2023/09/21 00:59:57;;;;;;;13.73;2.97;;;;;;;19.11;74.04;96761.63;5058183;28;20051;-85
2023/09/21 01:02:46;;;;;;;15.57;2.97;;;;;;;19.04;74.17;96761.28;5058550;28;20087;-84
2023/09/21 01:05:33;;;;;;;15.10;2.63;;;;;;;19.03;74.28;96764.22;5062430;28;20036;-84
2023/09/21 01:08:20;;;;;;;12.95;2.88;;;;;;;18.81;75.22;96752.53;5057969;28;20043;-83
2023/09/21 01:11:14;;;;;;;16.70;3.58;;;;;;;19.06;74.64;96759.09;5059110;28;20039;-83
2023/09/21 01:13:58;;;;;;;12.52;2.90;;;;;;;19.21;73.85;96743.84;5059175;28;20048;-84
2023/09/21 01:16:42;;;;;;;17.10;3.83;;;;;;;18.96;74.33;96757.47;5063829;28;20105;-83
2023/09/21 01:19:27;;;;;;;8.40;2.40;;;;;;;18.87;74.61;96746.00;5060366;28;20044;-85
2023/09/21 01:22:11;;;;;;;14.75;3.55;;;;;;;18.80;74.44;96762.38;5061208;28;20152;-84
2023/09/21 01:24:56;;;;;;;12.45;3.13;;;;;;;19.09;74.17;96760.38;5059774;28;20395;-84
2023/09/21 01:27:40;;;;;;;17.02;3.05;;;;;;;18.87;74.17;96767.28;5063615;28;20164;-86
2023/09/21 01:30:25;;;;;;;18.33;4.80;;;;;;;18.80;74.32;96766.91;5060427;28;20493;-85
2023/09/21 01:33:11;;;;;;;12.98;3.10;;;;;;;18.63;74.26;96773.69;5060774;28;20139;-87
2023/09/21 01:35:55;;;;;;;10.63;2.50;;;;;;;18.22;74.80;96783.41;5058310;28;20403;-85
2023/09/21 01:38:40;;;;;;;13.10;3.20;;;;;;;18.04;75.65;96789.66;5064036;28;20106;-85
2023/09/21 01:41:24;;;;;;;12.85;3.22;;;;;;;17.97;76.73;96784.72;5063052;28;20090;-85
2023/09/21 01:44:09;;;;;;;11.63;2.60;;;;;;;17.99;75.56;96790.50;5060161;28;20055;-84
2023/09/21 01:46:54;;;;;;;11.73;2.97;;;;;;;17.76;75.84;96774.53;5061082;28;20051;-84
2023/09/21 01:49:38;;;;;;;12.27;3.05;;;;;;;17.64;75.95;96782.19;5062514;28;20455;-84
2023/09/21 01:52:22;;;;;;;8.52;2.78;;;;;;;17.38;76.68;96774.75;5057595;28;20051;-85
2023/09/21 01:55:10;;;;;;;10.55;2.70;;;;;;;17.45;77.04;96782.31;5060081;28;20075;-83
2023/09/21 01:57:54;;;;;;;14.13;3.85;;;;;;;17.46;76.49;96776.72;5057350;28;20120;-83
2023/09/21 02:00:39;;;;;;;14.93;3.40;;;;;;;17.49;77.02;96770.03;5059629;28;20054;-83
2023/09/21 02:03:29;;;;;;;14.52;3.40;;;;;;;17.50;76.46;96761.81;5057501;28;20052;-83
2023/09/21 02:06:15;;;;;;;14.13;3.10;;;;;;;17.42;77.40;96770.44;5055754;28;20402;-85
2023/09/21 02:08:59;;;;;;;14.45;2.78;;;;;;;17.43;76.19;96777.31;5063767;28;20047;-84
2023/09/21 02:11:44;;;;;;;12.98;3.85;;;;;;;17.35;76.24;96780.66;5059168;28;20086;-84
2023/09/21 02:14:28;;;;;;;13.73;2.78;;;;;;;17.33;77.34;96788.88;5055664;28;20052;-84
2023/09/21 02:17:12;;;;;;;9.73;2.40;;;;;;;17.37;75.54;96789.09;5054014;28;20418;-84
2023/09/21 02:19:56;;;;;;;12.10;3.20;;;;;;;17.06;76.44;96790.44;5058622;28;20179;-85
2023/09/21 02:22:44;;;;;;;10.75;3.53;;;;;;;16.96;77.10;96799.31;5060344;28;20043;-83
2023/09/21 02:25:40;;;;;;;13.82;2.85;;;;;;;17.16;76.55;96800.06;5063208;28;20087;-84
2023/09/21 02:28:25;;;;;;;14.32;2.50;;;;;;;17.10;76.36;96801.25;5062504;28;20394;-83
2023/09/21 02:31:10;;;;;;;6.75;2.95;;;;;;;17.15;76.99;96814.41;5065358;28;20056;-83
2023/09/21 02:33:54;;;;;;;14.00;2.38;;;;;;;17.17;77.52;96812.25;5064757;28;20437;-84
2023/09/21 02:36:38;;;;;;;10.30;2.50;;;;;;;17.30;77.29;96810.69;5064443;28;20075;-83
2023/09/21 02:39:22;;;;;;;14.00;2.70;;;;;;;17.39;77.63;96813.44;5058633;28;20055;-84
2023/09/21 02:42:09;;;;;;;12.18;2.65;;;;;;;17.53;77.05;96811.59;5061031;28;20036;-83
2023/09/21 02:44:55;;;;;;;12.07;2.83;;;;;;;17.72;76.72;96810.72;5062713;28;20048;-83
2023/09/21 02:47:41;;;;;;;14.23;2.78;;;;;;;17.97;76.10;96816.56;5059765;28;20132;-85
2023/09/21 02:50:27;;;;;;;9.32;3.20;;;;;;;17.87;75.67;96817.56;5064185;28;20036;-84
2023/09/21 02:53:12;;;;;;;11.00;2.53;;;;;;;17.87;75.64;96814.91;5062678;28;20441;-84
2023/09/21 02:55:57;;;;;;;10.93;3.17;;;;;;;17.82;75.24;96815.78;5063619;28;20043;-85
2023/09/21 02:58:40;;;;;;;15.35;2.83;;;;;;;17.47;76.29;96820.72;5065364;28;20063;-85
2023/09/21 03:01:25;;;;;;;13.45;2.83;;;;;;;17.51;75.44;96808.47;5060950;28;20043;-84
2023/09/21 03:04:10;;;;;;;9.40;2.42;;;;;;;17.47;75.33;96809.34;5063433;28;20048;-83
2023/09/21 03:06:55;;;;;;;7.72;2.28;;;;;;;17.39;75.75;96811.59;5064970;28;20513;-82
2023/09/21 03:09:39;;;;;;;12.98;2.97;;;;;;;17.35;75.39;96807.16;5069196;28;20564;-82
2023/09/21 03:12:23;;;;;;;8.98;3.30;;;;;;;17.25;75.56;96806.25;5068877;28;20067;-83
2023/09/21 03:15:13;;;;;;;9.70;2.00;;;;;;;17.38;75.29;96817.97;5062954;28;20563;-83
2023/09/21 03:17:57;;;;;;;13.40;2.92;;;;;;;17.40;75.54;96815.81;5061810;28;20178;-83
2023/09/21 03:20:43;;;;;;;10.85;2.90;;;;;;;17.41;75.27;96808.63;5062603;28;20122;-84
2023/09/21 03:23:28;;;;;;;9.13;2.30;;;;;;;17.37;75.04;96800.47;5061134;28;20047;-83
2023/09/21 03:26:14;;;;;;;9.95;2.70;;;;;;;17.42;75.10;96802.25;5070411;28;20090;-85
2023/09/21 03:28:58;;;;;;;8.80;2.10;;;;;;;17.31;74.98;96791.06;5063875;28;20102;-84
2023/09/21 03:31:43;;;;;;;18.15;2.70;;;;;;;17.25;76.51;96787.69;5066107;28;20031;-84
2023/09/21 03:34:27;;;;;;;10.55;2.83;;;;;;;17.31;75.07;96783.09;5063914;28;20490;-83
2023/09/21 03:37:12;;;;;;;8.98;2.42;;;;;;;17.27;75.05;96785.53;5062770;28;20422;-85
2023/09/21 03:39:56;;;;;;;11.88;2.85;;;;;;;17.16;75.00;96786.81;5059845;28;20097;-83
2023/09/21 03:42:44;;;;;;;12.70;2.65;;;;;;;16.84;75.41;96780.44;5064904;28;20125;-85
2023/09/21 03:45:29;;;;;;;13.07;3.78;;;;;;;17.06;76.59;96789.66;5059075;28;20043;-84
2023/09/21 03:48:13;;;;;;;11.48;2.95;;;;;;;17.02;75.69;96783.38;5068034;28;20351;-85
2023/09/21 03:50:57;;;;;;;14.65;4.22;;;;;;;17.12;75.47;96789.25;5065261;28;20070;-83
2023/09/21 03:53:42;;;;;;;13.32;3.92;;;;;;;17.16;75.13;96786.81;5065286;28;20044;-83
2023/09/21 03:56:26;;;;;;;9.98;2.90;;;;;;;17.30;74.94;96796.66;5056685;28;20044;-84
2023/09/21 03:59:11;;;;;;;10.15;2.97;;;;;;;17.19;75.48;96798.69;5060681;28;20107;-83
2023/09/21 04:01:55;;;;;;;10.30;3.53;;;;;;;17.21;75.22;96796.56;5058800;28;20086;-85
2023/09/21 04:04:39;;;;;;;16.80;3.15;;;;;;;17.09;75.41;96799.66;5062099;28;20538;-84
2023/09/21 04:07:23;;;;;;;10.27;2.92;;;;;;;16.99;74.92;96798.78;5064439;28;20051;-84
2023/09/21 04:10:08;;;;;;;15.43;4.07;;;;;;;17.00;75.21;96799.56;5062713;28;20048;-83
2023/09/21 04:12:55;;;;;;;14.70;2.80;;;;;;;17.07;75.11;96799.16;5059816;28;20090;-86
2023/09/21 04:15:39;;;;;;;16.05;3.63;;;;;;;16.92;75.29;96801.00;5061747;28;20047;-84
2023/09/21 04:18:23;;;;;;;16.65;3.78;;;;;;;17.04;75.39;96794.44;5061179;28;20081;-84
2023/09/21 04:21:08;;;;;;;11.82;3.38;;;;;;;17.10;74.51;96798.59;5061979;28;20063;-84
2023/09/21 04:23:52;;;;;;;10.70;3.80;;;;;;;16.84;74.88;96799.78;5062931;28;20126;-83
2023/09/21 04:26:36;;;;;;;13.18;3.60;;;;;;;16.88;74.94;96805.28;5061335;28;20040;-83
2023/09/21 04:29:20;;;;;;;14.52;3.33;;;;;;;16.81;74.82;96797.72;5058979;28;20066;-84
2023/09/21 04:32:04;;;;;;;10.88;3.40;;;;;;;17.02;74.96;96799.25;5063970;28;20063;-83
2023/09/21 04:34:48;;;;;;;11.35;3.60;;;;;;;16.81;74.69;96796.94;5063224;28;20063;-84
2023/09/21 04:37:34;;;;;;;10.20;3.13;;;;;;;16.70;74.65;96794.47;5058032;28;20099;-83
2023/09/21 04:40:18;;;;;;;12.68;3.63;;;;;;;16.87;75.44;96793.09;5065834;28;20545;-83
2023/09/21 04:43:02;;;;;;;8.07;2.70;;;;;;;16.79;74.97;96791.13;5062142;28;20428;-84
2023/09/21 04:45:50;;;;;;;17.80;3.65;;;;;;;16.92;74.59;96800.19;5064293;28;20546;-83
2023/09/21 04:48:35;;;;;;;13.15;3.75;;;;;;;16.73;75.25;96800.25;5056806;28;20076;-83
2023/09/21 04:51:19;;;;;;;12.50;3.60;;;;;;;16.75;75.02;96795.44;5059179;28;20128;-84
2023/09/21 04:54:03;;;;;;;23.05;4.47;;;;;;;16.78;75.86;96810.75;5061783;28;20036;-83
2023/09/21 04:56:47;;;;;;;12.05;3.45;;;;;;;16.88;75.33;96805.28;5062843;28;20552;-83
2023/09/21 04:59:31;;;;;;;15.73;3.63;;;;;;;16.98;74.78;96809.63;5057618;28;20559;-83
2023/09/21 05:02:15;;;;;;;11.98;3.60;;;;;;;17.07;75.25;96807.13;5059682;28;20517;-84
2023/09/21 05:04:59;;;;;;;13.25;3.30;;;;;;;17.12;75.57;96815.00;5058233;28;20075;-83
2023/09/21 05:07:43;;;;;;;14.65;3.88;;;;;;;17.09;75.00;96805.75;5064938;28;20046;-83
2023/09/21 05:10:27;;;;;;;12.43;3.63;;;;;;;17.12;74.89;96815.00;5060221;28;20035;-85
2023/09/21 05:13:11;;;;;;;18.75;4.80;;;;;;;17.11;74.86;96813.44;5063395;28;20089;-83
2023/09/21 05:15:55;;;;;;;12.35;3.60;;;;;;;17.09;75.04;96820.88;5061779;28;20042;-83
2023/09/21 05:18:41;;;;;;;11.55;3.30;;;;;;;17.02;74.69;96815.16;5062233;28;20076;-83
2023/09/21 05:21:25;;;;;;;17.10;4.05;;;;;;;16.95;74.59;96813.66;5061528;28;20132;-85
2023/09/21 05:24:10;;;;;;;19.02;4.53;;;;;;;16.95;74.77;96832.22;5061469;28;20067;-83
2023/09/21 05:26:54;;;;;;;12.45;3.40;;;;;;;16.92;74.69;96827.50;5061687;28;20036;-84
2023/09/21 05:29:40;;;;;;;10.40;3.40;;;;;;;17.07;75.24;96838.91;5062964;28;20072;-83
2023/09/21 05:32:24;;;;;;;11.60;3.65;;;;;;;16.94;75.08;96835.94;5061308;28;20082;-87
2023/09/21 05:35:10;;;;;;;17.02;4.13;;;;;;;16.97;75.28;96855.75;5060991;28;20055;-86
2023/09/21 05:37:54;;;;;;;15.23;4.53;;;;;;;16.89;75.67;96859.84;5062904;28;20438;-84
2023/09/21 05:40:40;;;;;;;14.05;3.70;;;;;;;16.80;75.69;96862.38;5061013;28;20071;-84
2023/09/21 05:43:24;;;;;;;19.38;4.28;;;;;;;16.89;75.25;96859.84;5057594;28;20036;-83
2023/09/21 05:46:09;;;;;;;12.68;3.67;;;;;;;16.79;75.56;96873.25;5066529;28;20097;-83
2023/09/21 05:48:53;;;;;;;12.55;4.15;;;;;;;16.70;75.21;96879.22;5061961;28;20555;-84
2023/09/21 05:51:37;;;;;;;18.77;3.97;;;;;;;16.62;76.08;96871.91;5062649;28;20106;-83
2023/09/21 05:54:23;;;;;;;20.25;4.05;;;;;;;16.80;75.56;96872.19;5059917;28;20048;-82
2023/09/21 05:57:08;;;;;;;11.57;3.22;;;;;;;16.89;75.44;96881.03;5056768;28;20048;-82
2023/09/21 05:59:53;;;;;;;10.73;3.63;;;;;;;16.93;74.90;96882.06;5063396;28;20040;-83
2023/09/21 06:02:37;;;;;;;16.20;3.33;;;;;;;16.88;75.11;96884.78;5063579;28;20128;-82
2023/09/21 06:05:21;;;;;;;11.15;3.60;;;;;;;16.91;75.45;96883.41;5066908;28;20043;-83
2023/09/21 06:08:05;;;;;;;14.32;3.60;;;;;;;16.91;75.62;96875.47;5068120;28;20398;-84
2023/09/21 06:10:49;;;;;;;14.68;3.95;;;;;;;16.90;75.68;96885.28;5066784;28;20528;-87
2023/09/21 06:13:33;;;;;;;16.50;3.70;;;;;;;16.61;76.36;96882.81;5058029;28;20106;-86
2023/09/21 06:16:17;;;;;;;17.90;3.83;;;;;;;16.59;76.37;96883.09;5068222;28;20043;-89
2023/09/21 06:19:02;;;;;;;12.05;3.30;;;;;;;16.72;76.66;96886.09;5061836;28;20047;-88
2023/09/21 06:21:47;;;;;;;16.80;4.03;;;;;;;16.75;76.59;96877.56;5063437;28;20098;-86
2023/09/21 06:24:31;;;;;;;17.55;3.67;;;;;;;16.91;76.26;96889.50;5063699;28;20086;-86
2023/09/21 06:27:15;;;;;;;23.85;4.07;;;;;;;16.93;76.72;96883.91;5061835;28;20043;-84
2023/09/21 06:29:59;;;;;;;12.93;4.07;;;;;;;16.95;77.03;96890.50;5062459;28;20513;-84
2023/09/21 06:32:44;;;;;;;13.73;4.03;;;;;;;17.12;76.66;96894.53;5064100;28;20047;-83
2023/09/21 06:35:28;;;;;;;14.38;4.05;;;;;;;17.25;76.29;96892.97;5059626;28;20071;-84
2023/09/21 06:38:12;;;;;;;11.70;3.58;;;;;;;17.25;76.20;96899.06;5064429;28;20521;-88
2023/09/21 06:40:57;;;;;;;21.95;5.22;;;;;;;17.30;76.88;96906.16;5063232;28;20092;-86
2023/09/21 06:43:43;;;;;;;17.48;4.50;;;;;;;17.31;76.68;96912.25;5058319;28;20043;-89
2023/09/21 06:46:27;;;;;;;14.50;4.70;;;;;;;17.47;76.67;96910.88;5058851;28;20072;-88
2023/09/21 06:49:11;;;;;;;14.40;5.05;;;;;;;17.56;76.26;96911.00;5064186;28;20043;-90
2023/09/21 06:51:56;;;;;;;18.92;5.28;;;;;;;17.68;76.18;96921.13;5058945;28;20039;-89
2023/09/21 06:54:40;;;;;;;21.08;5.53;;;;;;;17.64;76.36;96917.50;5070123;28;20062;-88
2023/09/21 06:57:24;;;;;;;17.27;5.65;;;;;;;17.65;75.87;96916.41;5070278;28;20067;-88
2023/09/21 07:00:09;;;;;;;11.77;5.28;;;;;;;17.59;75.98;96907.78;5064705;28;20066;-90
2023/09/21 07:02:53;;;;;;;11.90;4.93;;;;;;;17.62;75.98;96909.84;5066048;28;20764;-89
2023/09/21 07:05:40;;;;;;;12.82;5.32;;;;;;;17.68;76.00;96913.97;5066639;28;20081;-91
2023/09/21 07:08:24;;;;;;;12.48;5.78;;;;;;;17.59;76.44;96906.97;5063684;28;20110;-84
2023/09/21 07:11:08;;;;;;;17.17;5.97;;;;;;;17.55;76.61;96906.78;5064490;28;20116;-82
2023/09/21 07:13:51;;;;;;;12.05;5.90;;;;;;;17.72;76.55;96906.22;5060203;28;20612;-82
2023/09/21 07:16:36;;;;;;;13.13;5.43;;;;;;;17.88;76.36;96903.25;5062332;28;20644;-83
2023/09/21 07:19:20;;;;;;;11.48;6.38;;;;;;;17.95;76.37;96906.31;5057626;28;20069;-82
2023/09/21 07:22:04;;;;;;;23.75;6.63;;;;;;;17.99;76.54;96907.28;5066873;28;20040;-82
2023/09/21 07:24:48;;;;;;;12.63;6.15;;;;;;;18.05;76.70;96911.44;5063146;28;20090;-82
2023/09/21 07:27:33;;;;;;;16.45;6.15;;;;;;;18.09;76.60;96907.13;5062382;28;20044;-83
2023/09/21 07:30:17;;;;;;;14.27;5.47;;;;;;;18.30;76.78;96912.03;5063258;28;20066;-82
2023/09/21 07:33:01;;;;;;;12.60;6.30;;;;;;;18.46;76.72;96911.69;5060080;28;20496;-82
2023/09/21 07:35:45;;;;;;;13.18;4.72;;;;;;;18.61;76.80;96907.94;5058531;28;20399;-86
2023/09/21 07:38:29;;;;;;;16.45;4.53;;;;;;;18.70;77.07;96914.91;5058065;28;20426;-84
2023/09/21 07:41:13;;;;;;;13.60;4.70;;;;;;;18.66;77.18;96897.19;5055515;28;20051;-85
2023/09/21 07:43:57;;;;;;;14.85;5.43;;;;;;;18.81;77.35;96901.34;5057192;28;20048;-86
2023/09/21 07:46:41;;;;;;;17.90;5.57;;;;;;;18.93;76.98;96909.59;5062705;28;20068;-85
2023/09/21 07:49:25;;;;;;;17.33;5.07;;;;;;;19.13;76.83;96913.66;5064259;28;20043;-86
2023/09/21 07:52:09;;;;;;;19.38;5.78;;;;;;;19.00;76.43;96909.22;5062867;28;20130;-87
2023/09/21 07:54:53;;;;;;;19.30;5.80;;;;;;;19.13;76.98;96918.19;5065964;28;20043;-85
2023/09/21 07:57:38;;;;;;;11.27;5.05;;;;;;;19.16;76.88;96916.78;5064305;28;20114;-86
2023/09/21 08:00:22;;;;;;;15.20;5.70;;;;;;;19.11;76.98;96905.19;5066889;28;20087;-85
2023/09/21 08:03:06;;;;;;;16.73;4.70;;;;;;;19.24;77.10;96914.19;5063067;28;20035;-85
2023/09/21 08:05:54;;;;;;;10.50;4.65;;;;;;;19.30;76.62;96912.19;5059535;28;20075;-87
2023/09/21 08:08:38;;;;;;;23.92;4.88;;;;;;;19.50;76.62;96910.91;5062427;28;20105;-85
2023/09/21 08:11:22;;;;;;;13.70;4.20;;;;;;;19.62;76.54;96914.88;5057920;28;20048;-88
2023/09/21 08:14:06;;;;;;;15.73;4.43;;;;;;;19.51;76.76;96925.78;5060932;28;20141;-86
2023/09/21 08:16:52;;;;;;;10.95;4.22;;;;;;;19.43;76.53;96926.50;5064731;28;20095;-86
2023/09/21 08:19:37;;;;;;;16.75;4.00;;;;;;;19.43;77.15;96921.19;5058051;28;20091;-87
2023/09/21 08:22:21;;;;;;;11.50;4.03;;;;;;;19.53;77.15;96910.28;5065225;28;20440;-86
2023/09/21 08:25:08;;;;;;;14.63;3.75;;;;;;;19.56;77.50;96919.56;5061716;28;20513;-83
2023/09/21 08:27:52;;;;;;;10.05;3.05;;;;;;;19.81;77.19;96934.03;5056693;28;20047;-83
2023/09/21 08:30:36;;;;;;;19.20;4.10;;;;;;;20.03;77.16;96932.44;5058818;28;20046;-85
2023/09/21 08:33:20;;;;;;;13.65;3.40;;;;;;;19.99;77.23;96931.47;5065893;28;20044;-83
2023/09/21 08:36:08;;;;;;;15.55;3.42;;;;;;;20.12;77.05;96940.44;5060331;28;20062;-84
2023/09/21 08:38:53;;;;;;;11.23;3.47;;;;;;;19.95;77.00;96941.19;5063471;28;20097;-85
2023/09/21 08:41:49;;;;;;;17.15;3.83;;;;;;;20.11;76.59;96939.69;5062206;28;20040;-85
2023/09/21 08:44:34;;;;;;;12.20;2.58;;;;;;;20.10;76.81;96943.44;5055906;28;20059;-83
2023/09/21 08:47:19;;;;;;;13.32;3.38;;;;;;;20.38;76.85;96937.09;5062039;28;20109;-83
2023/09/21 08:50:04;;;;;;;23.27;4.35;;;;;;;20.34;76.48;96942.25;5061832;28;20127;-83
2023/09/21 08:52:53;;;;;;;16.38;4.40;;;;;;;20.54;76.79;96940.09;5061059;28;20044;-85
2023/09/21 08:55:39;;;;;;;13.48;4.20;;;;;;;20.38;77.31;96934.41;5058547;28;20093;-82
2023/09/21 08:58:24;;;;;;;14.95;4.07;;;;;;;20.65;76.26;96938.69;5058205;28;20054;-81
2023/09/21 09:01:08;;;;;;;12.40;3.42;;;;;;;20.81;75.45;96939.03;5060388;28;20051;-82
2023/09/21 09:03:53;;;;;;;12.43;3.28;;;;;;;20.77;75.70;96937.28;5058892;28;20506;-82
2023/09/21 09:06:37;;;;;;;16.10;4.07;;;;;;;20.94;74.54;96945.31;5061169;28;20107;-83
2023/09/21 09:09:23;;;;;;;12.90;5.28;;;;;;;21.03;75.34;96941.84;5056765;28;20048;-82
2023/09/21 09:12:24;;;;;;;18.70;5.25;;;;;;;20.99;75.21;96936.38;5057095;28;20532;-82
2023/09/21 09:15:09;;;;;;;14.38;3.63;;;;;;;21.06;74.44;96938.56;5058503;28;20052;-83
2023/09/21 09:18:01;;;;;;;12.90;3.55;;;;;;;21.19;74.24;96945.59;5062916;28;20075;-82
2023/09/21 09:20:46;;;;;;;13.50;3.33;;;;;;;21.17;74.54;96933.69;5061301;28;20098;-82
2023/09/21 09:23:31;;;;;;;17.05;3.78;;;;;;;21.04;73.74;96941.53;5062457;28;20505;-82
2023/09/21 09:26:16;;;;;;;16.05;3.63;;;;;;;21.05;73.82;96945.00;5061567;28;20169;-81
2023/09/21 09:29:04;;;;;;;15.15;3.88;;;;;;;21.21;73.41;96940.72;5055479;28;20048;-82
2023/09/21 09:31:49;;;;;;;10.00;3.17;;;;;;;21.34;73.03;96938.19;5061866;28;20040;-83
2023/09/21 09:34:34;;;;;;;12.35;3.50;;;;;;;21.30;73.87;96937.28;5066025;28;20079;-82
2023/09/21 09:37:19;;;;;;;15.82;3.47;;;;;;;21.57;73.78;96936.13;5059273;28;20060;-82
2023/09/21 09:40:12;;;;;;;12.55;3.78;;;;;;;21.35;71.72;96931.75;5064471;28;20106;-82
2023/09/21 09:42:57;;;;;;;12.57;3.65;;;;;;;21.46;72.66;96927.66;5059470;28;20405;-83
2023/09/21 09:45:43;;;;;;;9.00;3.10;;;;;;;21.55;71.73;96936.41;5068635;28;20076;-82
2023/09/21 09:48:30;;;;;;;9.20;3.13;;;;;;;21.60;72.06;96932.81;5069244;28;20043;-83
2023/09/21 09:51:24;;;;;;;11.98;2.70;;;;;;;21.47;71.62;96928.44;5070672;28;20571;-83
2023/09/21 09:54:09;;;;;;;11.93;2.83;;;;;;;21.90;71.74;96932.09;5060396;28;20665;-83
2023/09/21 09:57:11;;;;;;;10.18;2.97;;;;;;;22.11;70.65;96922.25;5069218;28;21785;-81
2023/09/21 09:59:57;;;;;;;12.07;2.80;;;;;;;22.15;70.31;96917.06;5062518;28;20448;-82
2023/09/21 10:02:44;;;;;;;8.45;2.30;;;;;;;21.94;69.39;96931.16;5064754;28;20082;-81
2023/09/21 10:05:30;;;;;;;12.07;2.83;;;;;;;21.78;69.82;96930.88;5064258;28;20564;-82
2023/09/21 10:08:15;;;;;;;9.18;1.98;;;;;;;22.32;69.76;96926.84;5061960;28;20067;-81
2023/09/21 10:11:01;;;;;;;10.75;3.17;;;;;;;22.44;70.39;96930.72;5060853;28;20095;-82
2023/09/21 10:13:54;;;;;;;18.70;3.38;;;;;;;22.48;68.82;96937.78;5064558;28;20077;-81
2023/09/21 10:16:38;;;;;;;11.88;2.92;;;;;;;22.53;69.72;96921.56;5060921;28;20048;-82
2023/09/21 10:19:28;;;;;;;10.48;3.08;;;;;;;22.72;69.57;96927.56;5057972;28;20529;-81
2023/09/21 10:22:26;;;;;;;9.02;2.63;;;;;;;22.93;69.04;96922.97;5061852;28;20043;-81
2023/09/21 10:25:12;;;;;;;8.88;2.75;;;;;;;22.99;68.44;96930.78;5065113;28;20517;-82
2023/09/21 10:27:59;;;;;;;10.95;2.97;;;;;;;23.38;66.62;96926.84;5064475;28;20048;-82
2023/09/21 10:30:43;;;;;;;9.65;3.38;;;;;;;22.85;66.76;96931.88;5060348;28;20048;-81
2023/09/21 10:33:27;;;;;;;9.85;3.00;;;;;;;23.09;66.43;96925.03;5060387;28;20048;-81
2023/09/21 10:36:11;;;;;;;10.15;2.97;;;;;;;23.16;66.54;96925.28;5060472;28;20044;-81
2023/09/21 10:39:11;;;;;;;7.25;2.70;;;;;;;23.11;65.83;96922.81;5059118;28;20102;-82
2023/09/21 10:42:04;;;;;;;8.02;2.47;;;;;;;23.94;65.47;96930.13;5063925;28;20117;-83
2023/09/21 10:45:03;;;;;;;9.02;2.33;;;;;;;24.16;64.46;96925.47;5063442;28;20378;-81
2023/09/21 10:47:49;;;;;;;10.07;3.05;;;;;;;24.38;63.67;96918.88;5062302;28;20063;-80
2023/09/21 10:50:34;;;;;;;7.80;2.35;;;;;;;24.47;62.81;96918.75;5068480;28;20513;-81
2023/09/21 10:53:20;;;;;;;6.68;1.92;;;;;;;24.83;61.29;96922.47;5056833;28;20039;-81
2023/09/21 10:56:05;;;;;;;7.90;1.98;;;;;;;25.08;61.15;96919.69;5058227;28;20390;-80
2023/09/21 10:58:49;;;;;;;3.63;1.85;;;;;;;25.20;60.28;96916.94;5062971;28;20044;-80
2023/09/21 11:01:33;;;;;;;7.50;2.08;;;;;;;25.49;61.09;96917.69;5059449;28;20048;-82
2023/09/21 11:04:17;;;;;;;6.55;1.98;;;;;;;25.63;59.09;96908.44;5059594;28;20114;-80
2023/09/21 11:07:02;;;;;;;6.57;2.15;;;;;;;25.76;57.83;96915.28;5058955;28;20502;-80
2023/09/21 11:09:47;;;;;;;10.25;2.35;;;;;;;26.02;59.49;96919.34;5060575;28;20039;-81
2023/09/21 11:12:31;;;;;;;4.75;1.75;;;;;;;26.10;60.01;96906.84;5059139;28;20108;-82
2023/09/21 11:15:16;;;;;;;5.95;2.55;;;;;;;26.13;59.31;96910.72;5066027;28;20047;-81
2023/09/21 11:18:00;;;;;;;8.13;2.13;;;;;;;25.85;57.17;96919.69;5061888;28;20509;-82
2023/09/21 11:20:44;;;;;;;4.25;2.33;;;;;;;26.05;57.22;96912.50;5067395;28;20559;-81
2023/09/21 11:23:32;;;;;;;7.03;2.45;;;;;;;25.59;55.81;96921.00;5059914;28;20040;-81
2023/09/21 11:26:17;;;;;;;8.05;2.72;;;;;;;25.47;56.47;96909.22;5058776;28;20043;-80
2023/09/21 11:29:02;;;;;;;6.13;2.20;;;;;;;25.42;57.39;96912.13;5062249;28;20406;-82
2023/09/21 11:31:51;;;;;;;7.85;2.25;;;;;;;25.17;56.56;96916.84;5058994;28;20123;-81
2023/09/21 11:34:37;;;;;;;5.90;2.05;;;;;;;25.22;57.74;96914.69;5062662;28;20570;-81
2023/09/21 11:37:21;;;;;;;5.00;1.80;;;;;;;25.31;56.52;96905.69;5060625;28;20136;-82
2023/09/21 11:40:11;;;;;;;6.03;2.00;;;;;;;25.25;56.38;96913.22;5064192;28;20040;-82
2023/09/21 11:42:57;;;;;;;5.90;2.10;;;;;;;25.13;56.88;96905.25;5057011;28;20048;-80
2023/09/21 11:45:46;;;;;;;5.38;2.10;;;;;;;24.91;56.16;96912.72;5059936;28;20054;-82
2023/09/21 11:48:33;;;;;;;5.93;2.17;;;;;;;24.71;55.84;96914.44;5057567;28;20123;-82
2023/09/21 11:51:19;;;;;;;4.93;2.45;;;;;;;24.51;56.71;96914.25;5061389;28;20121;-81
2023/09/21 11:54:04;;;;;;;9.30;2.70;;;;;;;24.62;57.00;96920.72;5054441;28;20082;-81
2023/09/21 11:56:48;;;;;;;8.43;2.20;;;;;;;24.72;57.63;96907.94;5062223;28;20067;-80
2023/09/21 11:59:42;;;;;;;3.35;1.77;;;;;;;24.26;56.33;96914.31;5057009;28;20221;-81
2023/09/21 12:02:26;;;;;;;5.28;2.13;;;;;;;25.18;56.77;96911.16;5062903;28;20044;-81
2023/09/21 12:05:14;;;;;;;3.30;1.55;;;;;;;25.83;56.25;96911.97;5065597;28;20123;-80
2023/09/21 12:07:58;;;;;;;6.22;2.40;;;;;;;25.66;56.10;96905.06;5063311;28;20144;-81
2023/09/21 12:10:47;;;;;;;3.97;1.70;;;;;;;25.84;55.75;96900.09;5059261;28;20136;-80
2023/09/21 12:13:31;;;;;;;6.35;1.70;;;;;;;26.47;55.84;96924.56;5058548;28;20085;-80
2023/09/21 12:16:16;;;;;;;4.68;1.80;;;;;;;26.48;54.47;96915.34;5058209;28;20044;-81
2023/09/21 12:19:00;;;;;;;6.60;1.67;;;;;;;26.44;54.94;96922.56;5063886;28;20040;-82
2023/09/21 12:21:46;;;;;;;3.80;1.73;;;;;;;26.56;54.22;96927.84;5059241;28;20402;-81
2023/09/21 12:24:31;;;;;;;8.32;2.42;;;;;;;26.67;54.93;96920.75;5058871;28;20051;-80
2023/09/21 12:27:15;;;;;;;2.95;1.85;;;;;;;27.61;54.36;96929.06;5064309;28;20121;-80
2023/09/21 12:29:59;;;;;;;6.00;2.35;;;;;;;27.66;53.29;96931.44;5059579;28;20118;-81
2023/09/21 12:32:43;;;;;;;4.43;2.20;;;;;;;27.91;53.62;96925.69;5060641;28;20036;-82
2023/09/21 12:35:30;;;;;;;6.53;2.00;;;;;;;27.60;53.97;96924.81;5059208;28;20044;-80
2023/09/21 12:38:15;;;;;;;5.20;2.25;;;;;;;27.43;55.37;96926.81;5061402;28;20130;-81
2023/09/21 12:41:00;;;;;;;7.95;2.00;;;;;;;27.18;54.16;96927.16;5059788;28;20046;-81
2023/09/21 12:43:43;;;;;;;5.65;1.92;;;;;;;27.03;55.07;96914.56;5059176;28;20143;-81
2023/09/21 12:46:29;;;;;;;8.20;2.20;;;;;;;26.77;54.36;96914.03;5059214;28;20044;-80
2023/09/21 12:49:14;;;;;;;6.50;2.33;;;;;;;26.86;54.25;96913.84;5057992;28;20040;-81
2023/09/21 12:51:57;;;;;;;3.75;1.77;;;;;;;27.06;54.15;96911.13;5060738;28;20048;-81